sensor_id;sensor_type;location;lat;lon;timestamp;temperature;humidity
20654;DHT22;21083;50.898;4.902;2022-12-18T00:02:05;-3.50;99.90
20654;DHT22;21083;50.898;4.902;2022-12-18T00:04:32;-3.50;99.90
20654;DHT22;21083;50.898;4.902;2022-12-18T00:07:00;-3.50;99.90
20654;DHT22;21083;50.898;4.902;2022-12-18T00:09:27;-3.50;99.90
20654;DHT22;21083;50.898;4.902;2022-12-18T00:11:54;-3.40;99.90
20654;DHT22;21083;50.898;4.902;2022-12-18T00:14:21;-3.50;99.90
20654;DHT22;21083;50.898;4.902;2022-12-18T00:16:47;-3.50;99.90
20654;DHT22;21083;50.898;4.902;2022-12-18T00:19:15;-3.40;99.90
20654;DHT22;21083;50.898;4.902;2022-12-18T00:21:43;-3.50;99.90
20654;DHT22;21083;50.898;4.902;2022-12-18T00:24:11;-3.50;99.90
20654;DHT22;21083;50.898;4.902;2022-12-18T00:26:39;-3.50;99.90
20654;DHT22;21083;50.898;4.902;2022-12-18T00:29:10;-3.50;99.90
20654;DHT22;21083;50.898;4.902;2022-12-18T00:31:40;-3.50;99.90
20654;DHT22;21083;50.898;4.902;2022-12-18T00:34:08;-3.50;99.90
20654;DHT22;21083;50.898;4.902;2022-12-18T00:36:35;-3.60;99.90
20654;DHT22;21083;50.898;4.902;2022-12-18T00:39:04;-3.50;99.90
20654;DHT22;21083;50.898;4.902;2022-12-18T00:41:33;-3.50;99.90
20654;DHT22;21083;50.898;4.902;2022-12-18T00:44:17;-3.50;99.90
20654;DHT22;21083;50.898;4.902;2022-12-18T00:46:45;-3.60;99.90
20654;DHT22;21083;50.898;4.902;2022-12-18T00:49:12;-3.70;99.90
20654;DHT22;21083;50.898;4.902;2022-12-18T00:51:39;-3.70;99.90
20654;DHT22;21083;50.898;4.902;2022-12-18T00:54:06;-3.70;99.90
20654;DHT22;21083;50.898;4.902;2022-12-18T00:56:37;-3.70;99.90
20654;DHT22;21083;50.898;4.902;2022-12-18T00:59:04;-3.70;99.90
20654;DHT22;21083;50.898;4.902;2022-12-18T01:01:31;-3.70;99.90
20654;DHT22;21083;50.898;4.902;2022-12-18T01:03:58;-3.70;99.90
20654;DHT22;21083;50.898;4.902;2022-12-18T01:06:25;-3.70;99.90
20654;DHT22;21083;50.898;4.902;2022-12-18T01:08:52;-3.70;99.90
20654;DHT22;21083;50.898;4.902;2022-12-18T01:11:20;-3.80;99.90
20654;DHT22;21083;50.898;4.902;2022-12-18T01:13:48;-3.80;99.90
20654;DHT22;21083;50.898;4.902;2022-12-18T01:16:17;-3.80;99.90
20654;DHT22;21083;50.898;4.902;2022-12-18T01:18:44;-3.80;99.90
20654;DHT22;21083;50.898;4.902;2022-12-18T01:21:13;-3.70;99.90
20654;DHT22;21083;50.898;4.902;2022-12-18T01:23:40;-3.70;99.90
20654;DHT22;21083;50.898;4.902;2022-12-18T01:26:08;-3.80;99.90
20654;DHT22;21083;50.898;4.902;2022-12-18T01:28:35;-3.70;99.90
20654;DHT22;21083;50.898;4.902;2022-12-18T01:31:18;-3.80;99.90
20654;DHT22;21083;50.898;4.902;2022-12-18T01:33:45;-3.80;99.90
20654;DHT22;21083;50.898;4.902;2022-12-18T01:36:17;-3.80;99.90
20654;DHT22;21083;50.898;4.902;2022-12-18T01:38:45;-3.80;99.90
20654;DHT22;21083;50.898;4.902;2022-12-18T01:41:17;-3.80;99.90
20654;DHT22;21083;50.898;4.902;2022-12-18T01:43:50;-3.80;99.90
20654;DHT22;21083;50.898;4.902;2022-12-18T01:46:20;-3.80;99.90
20654;DHT22;21083;50.898;4.902;2022-12-18T01:48:53;-3.80;99.90
20654;DHT22;21083;50.898;4.902;2022-12-18T01:51:22;-3.80;99.90
20654;DHT22;21083;50.898;4.902;2022-12-18T01:53:49;-3.80;99.90
20654;DHT22;21083;50.898;4.902;2022-12-18T01:56:18;-3.80;99.90
20654;DHT22;21083;50.898;4.902;2022-12-18T01:58:56;-3.80;99.90
20654;DHT22;21083;50.898;4.902;2022-12-18T02:01:26;-3.80;99.90
20654;DHT22;21083;50.898;4.902;2022-12-18T02:03:53;-3.80;99.90
20654;DHT22;21083;50.898;4.902;2022-12-18T02:06:24;-3.80;99.90
20654;DHT22;21083;50.898;4.902;2022-12-18T02:09:02;-3.80;99.90
20654;DHT22;21083;50.898;4.902;2022-12-18T02:11:41;-3.70;99.90
20654;DHT22;21083;50.898;4.902;2022-12-18T02:14:18;-3.70;99.90
20654;DHT22;21083;50.898;4.902;2022-12-18T02:16:52;-3.70;99.90
20654;DHT22;21083;50.898;4.902;2022-12-18T02:19:39;-3.60;99.90
20654;DHT22;21083;50.898;4.902;2022-12-18T02:22:22;-3.60;99.90
20654;DHT22;21083;50.898;4.902;2022-12-18T02:24:57;-3.60;99.90
20654;DHT22;21083;50.898;4.902;2022-12-18T02:27:28;-3.60;99.90
20654;DHT22;21083;50.898;4.902;2022-12-18T02:29:57;-3.60;99.90
20654;DHT22;21083;50.898;4.902;2022-12-18T02:32:28;-3.60;99.90
20654;DHT22;21083;50.898;4.902;2022-12-18T02:34:57;-3.60;99.90
20654;DHT22;21083;50.898;4.902;2022-12-18T02:37:26;-3.60;99.90
20654;DHT22;21083;50.898;4.902;2022-12-18T02:39:56;-3.60;99.90
20654;DHT22;21083;50.898;4.902;2022-12-18T02:42:24;-3.70;99.90
20654;DHT22;21083;50.898;4.902;2022-12-18T02:44:52;-3.60;99.90
20654;DHT22;21083;50.898;4.902;2022-12-18T02:47:24;-3.60;99.90
20654;DHT22;21083;50.898;4.902;2022-12-18T02:49:57;-3.60;99.90
20654;DHT22;21083;50.898;4.902;2022-12-18T02:52:33;-3.60;99.90
20654;DHT22;21083;50.898;4.902;2022-12-18T02:55:10;-3.70;99.90
20654;DHT22;21083;50.898;4.902;2022-12-18T02:57:44;-3.60;99.90
20654;DHT22;21083;50.898;4.902;2022-12-18T03:00:16;-3.70;99.90
20654;DHT22;21083;50.898;4.902;2022-12-18T03:02:48;-3.70;99.90
20654;DHT22;21083;50.898;4.902;2022-12-18T03:05:21;-3.70;99.90
20654;DHT22;21083;50.898;4.902;2022-12-18T03:07:52;-3.70;99.90
20654;DHT22;21083;50.898;4.902;2022-12-18T03:10:25;-3.60;99.90
20654;DHT22;21083;50.898;4.902;2022-12-18T03:12:56;-3.60;99.90
20654;DHT22;21083;50.898;4.902;2022-12-18T03:15:29;-3.60;99.90
20654;DHT22;21083;50.898;4.902;2022-12-18T03:17:59;-3.70;99.90
20654;DHT22;21083;50.898;4.902;2022-12-18T03:20:31;-3.70;99.90
20654;DHT22;21083;50.898;4.902;2022-12-18T03:23:01;-3.70;99.90
20654;DHT22;21083;50.898;4.902;2022-12-18T03:25:30;-3.70;99.90
20654;DHT22;21083;50.898;4.902;2022-12-18T03:28:01;-3.70;99.90
20654;DHT22;21083;50.898;4.902;2022-12-18T03:30:32;-3.70;99.90
20654;DHT22;21083;50.898;4.902;2022-12-18T03:33:07;-3.70;99.90
20654;DHT22;21083;50.898;4.902;2022-12-18T03:35:37;-3.70;99.90
20654;DHT22;21083;50.898;4.902;2022-12-18T03:38:05;-3.70;99.90
20654;DHT22;21083;50.898;4.902;2022-12-18T03:40:43;-3.70;99.90
20654;DHT22;21083;50.898;4.902;2022-12-18T03:43:18;-3.70;99.90
20654;DHT22;21083;50.898;4.902;2022-12-18T03:45:52;-3.80;99.90
20654;DHT22;21083;50.898;4.902;2022-12-18T03:48:28;-3.80;99.90
20654;DHT22;21083;50.898;4.902;2022-12-18T03:50:57;-3.80;99.90
20654;DHT22;21083;50.898;4.902;2022-12-18T03:53:32;-3.80;99.90
20654;DHT22;21083;50.898;4.902;2022-12-18T03:56:02;-3.80;99.90
20654;DHT22;21083;50.898;4.902;2022-12-18T03:58:31;-3.90;99.90
20654;DHT22;21083;50.898;4.902;2022-12-18T04:01:02;-3.90;99.90
20654;DHT22;21083;50.898;4.902;2022-12-18T04:03:31;-3.90;99.90
20654;DHT22;21083;50.898;4.902;2022-12-18T04:05:59;-3.90;99.90
20654;DHT22;21083;50.898;4.902;2022-12-18T04:08:27;-3.90;99.90
20654;DHT22;21083;50.898;4.902;2022-12-18T04:10:54;-3.90;99.90
20654;DHT22;21083;50.898;4.902;2022-12-18T04:13:24;-4.00;99.90
20654;DHT22;21083;50.898;4.902;2022-12-18T04:15:54;-4.00;99.90
20654;DHT22;21083;50.898;4.902;2022-12-18T04:18:22;-4.00;99.90
20654;DHT22;21083;50.898;4.902;2022-12-18T04:20:49;-4.10;99.90
20654;DHT22;21083;50.898;4.902;2022-12-18T04:23:16;-4.10;99.90
20654;DHT22;21083;50.898;4.902;2022-12-18T04:25:42;-4.10;99.90
20654;DHT22;21083;50.898;4.902;2022-12-18T04:28:09;-4.10;99.90
20654;DHT22;21083;50.898;4.902;2022-12-18T04:30:36;-4.10;99.90
20654;DHT22;21083;50.898;4.902;2022-12-18T04:33:03;-4.10;99.90
20654;DHT22;21083;50.898;4.902;2022-12-18T04:35:31;-4.10;99.90
20654;DHT22;21083;50.898;4.902;2022-12-18T04:37:58;-4.10;99.90
20654;DHT22;21083;50.898;4.902;2022-12-18T04:40:25;-4.10;99.90
20654;DHT22;21083;50.898;4.902;2022-12-18T04:42:52;-4.10;99.90
20654;DHT22;21083;50.898;4.902;2022-12-18T04:45:19;-4.10;99.90
20654;DHT22;21083;50.898;4.902;2022-12-18T04:47:46;-4.10;99.90
20654;DHT22;21083;50.898;4.902;2022-12-18T04:50:13;-4.20;99.90
20654;DHT22;21083;50.898;4.902;2022-12-18T04:52:41;-4.20;99.90
20654;DHT22;21083;50.898;4.902;2022-12-18T04:55:08;-4.20;99.90
20654;DHT22;21083;50.898;4.902;2022-12-18T04:57:35;-4.20;99.90
20654;DHT22;21083;50.898;4.902;2022-12-18T05:00:03;-4.20;99.90
20654;DHT22;21083;50.898;4.902;2022-12-18T05:02:31;-4.20;99.90
20654;DHT22;21083;50.898;4.902;2022-12-18T05:04:58;-4.30;99.90
20654;DHT22;21083;50.898;4.902;2022-12-18T05:07:25;-4.30;99.90
20654;DHT22;21083;50.898;4.902;2022-12-18T05:09:53;-4.30;99.90
20654;DHT22;21083;50.898;4.902;2022-12-18T05:12:20;-4.20;99.90
20654;DHT22;21083;50.898;4.902;2022-12-18T05:14:47;-4.20;99.90
20654;DHT22;21083;50.898;4.902;2022-12-18T05:17:14;-4.20;99.90
20654;DHT22;21083;50.898;4.902;2022-12-18T05:19:40;-4.20;99.90
20654;DHT22;21083;50.898;4.902;2022-12-18T05:22:08;-4.20;99.90
20654;DHT22;21083;50.898;4.902;2022-12-18T05:24:35;-4.30;99.90
20654;DHT22;21083;50.898;4.902;2022-12-18T05:27:04;-4.20;99.90
20654;DHT22;21083;50.898;4.902;2022-12-18T05:29:31;-4.30;99.90
20654;DHT22;21083;50.898;4.902;2022-12-18T05:31:58;-4.30;99.90
20654;DHT22;21083;50.898;4.902;2022-12-18T05:34:25;-4.30;99.90
20654;DHT22;21083;50.898;4.902;2022-12-18T05:36:52;-4.30;99.90
20654;DHT22;21083;50.898;4.902;2022-12-18T05:39:19;-4.20;99.90
20654;DHT22;21083;50.898;4.902;2022-12-18T05:41:45;-4.20;99.90
20654;DHT22;21083;50.898;4.902;2022-12-18T05:44:14;-4.20;99.90
20654;DHT22;21083;50.898;4.902;2022-12-18T05:46:41;-4.20;99.90
20654;DHT22;21083;50.898;4.902;2022-12-18T05:49:07;-4.20;99.90
20654;DHT22;21083;50.898;4.902;2022-12-18T05:51:34;-4.20;99.90
20654;DHT22;21083;50.898;4.902;2022-12-18T05:54:01;-4.30;99.90
20654;DHT22;21083;50.898;4.902;2022-12-18T05:56:28;-4.30;99.90
20654;DHT22;21083;50.898;4.902;2022-12-18T05:58:55;-4.30;99.90
20654;DHT22;21083;50.898;4.902;2022-12-18T06:01:25;-4.30;99.90
20654;DHT22;21083;50.898;4.902;2022-12-18T06:03:52;-4.30;99.90
20654;DHT22;21083;50.898;4.902;2022-12-18T06:06:21;-4.30;99.90
20654;DHT22;21083;50.898;4.902;2022-12-18T06:08:49;-4.40;99.90
20654;DHT22;21083;50.898;4.902;2022-12-18T06:11:18;-4.30;99.90
20654;DHT22;21083;50.898;4.902;2022-12-18T06:13:45;-4.30;99.90
20654;DHT22;21083;50.898;4.902;2022-12-18T06:16:12;-4.40;99.90
20654;DHT22;21083;50.898;4.902;2022-12-18T06:18:40;-4.40;99.90
20654;DHT22;21083;50.898;4.902;2022-12-18T06:21:07;-4.40;99.90
20654;DHT22;21083;50.898;4.902;2022-12-18T06:23:34;-4.40;99.90
20654;DHT22;21083;50.898;4.902;2022-12-18T06:26:04;-4.40;99.90
20654;DHT22;21083;50.898;4.902;2022-12-18T06:28:31;-4.40;99.90
20654;DHT22;21083;50.898;4.902;2022-12-18T06:30:58;-4.40;99.90
20654;DHT22;21083;50.898;4.902;2022-12-18T06:33:26;-4.40;99.90
20654;DHT22;21083;50.898;4.902;2022-12-18T06:35:58;-4.50;99.90
20654;DHT22;21083;50.898;4.902;2022-12-18T06:38:26;-4.50;99.90
20654;DHT22;21083;50.898;4.902;2022-12-18T06:40:52;-4.60;99.90
20654;DHT22;21083;50.898;4.902;2022-12-18T06:43:19;-4.60;99.90
20654;DHT22;21083;50.898;4.902;2022-12-18T06:45:46;-4.60;99.90
20654;DHT22;21083;50.898;4.902;2022-12-18T06:48:18;-4.60;99.90
20654;DHT22;21083;50.898;4.902;2022-12-18T06:50:45;-4.60;99.90
20654;DHT22;21083;50.898;4.902;2022-12-18T06:53:13;-4.60;99.90
20654;DHT22;21083;50.898;4.902;2022-12-18T06:55:40;-4.60;99.90
20654;DHT22;21083;50.898;4.902;2022-12-18T06:58:07;-4.60;99.90
20654;DHT22;21083;50.898;4.902;2022-12-18T07:00:34;-4.60;99.90
20654;DHT22;21083;50.898;4.902;2022-12-18T07:03:01;-4.70;99.90
20654;DHT22;21083;50.898;4.902;2022-12-18T07:05:28;-4.70;99.90
20654;DHT22;21083;50.898;4.902;2022-12-18T07:07:55;-4.70;99.90
20654;DHT22;21083;50.898;4.902;2022-12-18T07:10:23;-4.70;99.90
20654;DHT22;21083;50.898;4.902;2022-12-18T07:12:50;-4.70;99.90
20654;DHT22;21083;50.898;4.902;2022-12-18T07:15:17;-4.70;99.90
20654;DHT22;21083;50.898;4.902;2022-12-18T07:17:44;-4.70;99.90
20654;DHT22;21083;50.898;4.902;2022-12-18T07:20:11;-4.70;99.90
20654;DHT22;21083;50.898;4.902;2022-12-18T07:22:38;-4.70;99.90
20654;DHT22;21083;50.898;4.902;2022-12-18T07:25:06;-4.80;99.90
20654;DHT22;21083;50.898;4.902;2022-12-18T07:27:35;-4.80;99.90
20654;DHT22;21083;50.898;4.902;2022-12-18T07:30:02;-4.70;99.90
20654;DHT22;21083;50.898;4.902;2022-12-18T07:32:30;-4.80;99.90
20654;DHT22;21083;50.898;4.902;2022-12-18T07:34:57;-4.80;99.90
20654;DHT22;21083;50.898;4.902;2022-12-18T07:37:24;-4.70;99.90
20654;DHT22;21083;50.898;4.902;2022-12-18T07:39:50;-4.70;99.90
20654;DHT22;21083;50.898;4.902;2022-12-18T07:42:17;-4.70;99.90
20654;DHT22;21083;50.898;4.902;2022-12-18T07:45:02;-4.70;99.90
20654;DHT22;21083;50.898;4.902;2022-12-18T07:47:29;-4.70;99.90
20654;DHT22;21083;50.898;4.902;2022-12-18T07:49:56;-4.80;99.90
20654;DHT22;21083;50.898;4.902;2022-12-18T07:52:23;-4.70;99.90
20654;DHT22;21083;50.898;4.902;2022-12-18T07:54:50;-4.70;99.90
20654;DHT22;21083;50.898;4.902;2022-12-18T07:57:17;-4.70;99.90
20654;DHT22;21083;50.898;4.902;2022-12-18T07:59:44;-4.70;99.90
20654;DHT22;21083;50.898;4.902;2022-12-18T08:02:12;-4.70;99.90
20654;DHT22;21083;50.898;4.902;2022-12-18T08:04:40;-4.70;99.90
20654;DHT22;21083;50.898;4.902;2022-12-18T08:07:06;-4.70;99.90
20654;DHT22;21083;50.898;4.902;2022-12-18T08:09:33;-4.80;99.90
20654;DHT22;21083;50.898;4.902;2022-12-18T08:12:00;-4.90;99.90
20654;DHT22;21083;50.898;4.902;2022-12-18T08:14:27;-4.90;99.90
20654;DHT22;21083;50.898;4.902;2022-12-18T08:16:54;-4.80;99.90
20654;DHT22;21083;50.898;4.902;2022-12-18T08:19:22;-4.90;99.90
20654;DHT22;21083;50.898;4.902;2022-12-18T08:21:49;-4.80;99.90
20654;DHT22;21083;50.898;4.902;2022-12-18T08:24:17;-4.80;99.90
20654;DHT22;21083;50.898;4.902;2022-12-18T08:26:44;-4.80;99.90
20654;DHT22;21083;50.898;4.902;2022-12-18T08:29:11;-4.90;99.90
20654;DHT22;21083;50.898;4.902;2022-12-18T08:31:38;-4.80;99.90
20654;DHT22;21083;50.898;4.902;2022-12-18T08:34:05;-4.80;99.90
20654;DHT22;21083;50.898;4.902;2022-12-18T08:36:33;-4.60;99.90
20654;DHT22;21083;50.898;4.902;2022-12-18T08:39:00;-4.60;99.90
20654;DHT22;21083;50.898;4.902;2022-12-18T08:41:27;-4.50;99.90
20654;DHT22;21083;50.898;4.902;2022-12-18T08:43:54;-4.40;99.90
20654;DHT22;21083;50.898;4.902;2022-12-18T08:46:40;-4.20;99.90
20654;DHT22;21083;50.898;4.902;2022-12-18T08:49:08;-4.10;99.90
20654;DHT22;21083;50.898;4.902;2022-12-18T08:51:37;-4.10;99.90
20654;DHT22;21083;50.898;4.902;2022-12-18T08:54:05;-4.00;99.90
20654;DHT22;21083;50.898;4.902;2022-12-18T08:56:32;-3.90;99.90
20654;DHT22;21083;50.898;4.902;2022-12-18T08:58:59;-3.80;99.90
20654;DHT22;21083;50.898;4.902;2022-12-18T09:01:26;-3.70;99.90
20654;DHT22;21083;50.898;4.902;2022-12-18T09:03:53;-3.20;99.90
20654;DHT22;21083;50.898;4.902;2022-12-18T09:06:21;-3.20;99.90
20654;DHT22;21083;50.898;4.902;2022-12-18T09:08:50;-3.10;99.90
20654;DHT22;21083;50.898;4.902;2022-12-18T09:11:20;-3.00;99.90
20654;DHT22;21083;50.898;4.902;2022-12-18T09:13:48;-3.00;99.90
20654;DHT22;21083;50.898;4.902;2022-12-18T09:16:15;-2.90;99.90
20654;DHT22;21083;50.898;4.902;2022-12-18T09:18:43;-2.90;99.90
20654;DHT22;21083;50.898;4.902;2022-12-18T09:21:11;-2.80;99.90
20654;DHT22;21083;50.898;4.902;2022-12-18T09:23:39;-2.80;99.90
20654;DHT22;21083;50.898;4.902;2022-12-18T09:26:07;-2.80;99.90
20654;DHT22;21083;50.898;4.902;2022-12-18T09:28:34;-2.70;99.90
20654;DHT22;21083;50.898;4.902;2022-12-18T09:31:05;-2.70;99.90
20654;DHT22;21083;50.898;4.902;2022-12-18T09:33:33;-2.60;99.90
20654;DHT22;21083;50.898;4.902;2022-12-18T09:36:02;-2.60;99.90
20654;DHT22;21083;50.898;4.902;2022-12-18T09:38:29;-2.50;99.90
20654;DHT22;21083;50.898;4.902;2022-12-18T09:40:59;-2.50;99.90
20654;DHT22;21083;50.898;4.902;2022-12-18T09:43:33;-2.40;99.90
20654;DHT22;21083;50.898;4.902;2022-12-18T09:46:05;-2.40;99.90
20654;DHT22;21083;50.898;4.902;2022-12-18T09:48:35;-2.30;99.90
20654;DHT22;21083;50.898;4.902;2022-12-18T09:51:09;-2.30;99.90
20654;DHT22;21083;50.898;4.902;2022-12-18T09:53:40;-2.40;99.90
20654;DHT22;21083;50.898;4.902;2022-12-18T09:56:13;-2.30;99.90
20654;DHT22;21083;50.898;4.902;2022-12-18T09:58:48;-2.10;99.90
20654;DHT22;21083;50.898;4.902;2022-12-18T10:01:18;-2.00;99.90
20654;DHT22;21083;50.898;4.902;2022-12-18T10:03:47;-1.90;99.90
20654;DHT22;21083;50.898;4.902;2022-12-18T10:06:17;-1.80;99.90
20654;DHT22;21083;50.898;4.902;2022-12-18T10:08:49;-1.70;99.90
20654;DHT22;21083;50.898;4.902;2022-12-18T10:11:34;-1.70;99.90
20654;DHT22;21083;50.898;4.902;2022-12-18T10:14:13;-1.70;99.90
20654;DHT22;21083;50.898;4.902;2022-12-18T10:16:50;-1.60;99.90
20654;DHT22;21083;50.898;4.902;2022-12-18T10:19:27;-1.60;99.90
20654;DHT22;21083;50.898;4.902;2022-12-18T10:22:02;-1.50;99.90
20654;DHT22;21083;50.898;4.902;2022-12-18T10:24:39;-1.60;99.90
20654;DHT22;21083;50.898;4.902;2022-12-18T10:27:14;-1.50;99.90
20654;DHT22;21083;50.898;4.902;2022-12-18T10:29:43;-1.40;99.90
20654;DHT22;21083;50.898;4.902;2022-12-18T10:32:14;-1.40;99.90
20654;DHT22;21083;50.898;4.902;2022-12-18T10:34:45;-1.40;99.90
20654;DHT22;21083;50.898;4.902;2022-12-18T10:37:17;-1.30;99.90
20654;DHT22;21083;50.898;4.902;2022-12-18T10:39:45;-1.30;99.90
20654;DHT22;21083;50.898;4.902;2022-12-18T10:42:17;-1.20;99.90
20654;DHT22;21083;50.898;4.902;2022-12-18T10:44:46;-1.10;99.90
20654;DHT22;21083;50.898;4.902;2022-12-18T10:47:27;-1.10;99.90
20654;DHT22;21083;50.898;4.902;2022-12-18T10:49:54;-1.10;99.90
20654;DHT22;21083;50.898;4.902;2022-12-18T10:52:23;-1.00;99.90
20654;DHT22;21083;50.898;4.902;2022-12-18T10:54:52;-1.10;99.90
20654;DHT22;21083;50.898;4.902;2022-12-18T10:57:34;-1.10;99.90
20654;DHT22;21083;50.898;4.902;2022-12-18T11:00:25;-1.20;99.90
20654;DHT22;21083;50.898;4.902;2022-12-18T11:02:53;-1.00;99.90
20654;DHT22;21083;50.898;4.902;2022-12-18T11:05:26;-0.90;99.90
20654;DHT22;21083;50.898;4.902;2022-12-18T11:07:54;-0.90;99.90
20654;DHT22;21083;50.898;4.902;2022-12-18T11:10:28;-0.80;99.90
20654;DHT22;21083;50.898;4.902;2022-12-18T11:12:55;-0.80;99.90
20654;DHT22;21083;50.898;4.902;2022-12-18T11:15:28;-0.70;99.90
20654;DHT22;21083;50.898;4.902;2022-12-18T11:17:56;-0.70;99.90
20654;DHT22;21083;50.898;4.902;2022-12-18T11:20:30;-0.60;99.90
20654;DHT22;21083;50.898;4.902;2022-12-18T11:22:59;-0.60;99.90
20654;DHT22;21083;50.898;4.902;2022-12-18T11:25:27;-0.50;99.90
20654;DHT22;21083;50.898;4.902;2022-12-18T11:27:56;-0.50;99.90
20654;DHT22;21083;50.898;4.902;2022-12-18T11:30:28;-0.50;99.90
20654;DHT22;21083;50.898;4.902;2022-12-18T11:33:03;-0.40;99.90
20654;DHT22;21083;50.898;4.902;2022-12-18T11:35:42;-0.40;99.90
20654;DHT22;21083;50.898;4.902;2022-12-18T11:38:17;-0.40;99.90
20654;DHT22;21083;50.898;4.902;2022-12-18T11:40:49;-0.40;99.90
20654;DHT22;21083;50.898;4.902;2022-12-18T11:43:25;-0.20;99.90
20654;DHT22;21083;50.898;4.902;2022-12-18T11:45:59;-0.20;99.90
20654;DHT22;21083;50.898;4.902;2022-12-18T11:48:28;0.00;99.90
20654;DHT22;21083;50.898;4.902;2022-12-18T11:50:58;0.00;99.90
20654;DHT22;21083;50.898;4.902;2022-12-18T11:53:26;0.00;99.90
20654;DHT22;21083;50.898;4.902;2022-12-18T11:56:04;0.00;99.90
20654;DHT22;21083;50.898;4.902;2022-12-18T11:58:51;0.20;99.90
20654;DHT22;21083;50.898;4.902;2022-12-18T12:01:34;0.20;99.90
20654;DHT22;21083;50.898;4.902;2022-12-18T12:04:36;0.20;99.90
20654;DHT22;21083;50.898;4.902;2022-12-18T12:07:15;0.30;99.90
20654;DHT22;21083;50.898;4.902;2022-12-18T12:09:49;0.30;99.90
20654;DHT22;21083;50.898;4.902;2022-12-18T12:12:29;0.30;99.90
20654;DHT22;21083;50.898;4.902;2022-12-18T12:15:23;0.40;99.90
20654;DHT22;21083;50.898;4.902;2022-12-18T12:18:01;0.50;99.90
20654;DHT22;21083;50.898;4.902;2022-12-18T12:20:38;0.50;99.90
20654;DHT22;21083;50.898;4.902;2022-12-18T12:23:15;0.60;99.90
20654;DHT22;21083;50.898;4.902;2022-12-18T12:25:46;0.60;99.90
20654;DHT22;21083;50.898;4.902;2022-12-18T12:28:32;0.70;99.90
20654;DHT22;21083;50.898;4.902;2022-12-18T12:31:05;0.70;99.90
20654;DHT22;21083;50.898;4.902;2022-12-18T12:33:42;0.70;99.90
20654;DHT22;21083;50.898;4.902;2022-12-18T12:36:17;0.70;99.90
20654;DHT22;21083;50.898;4.902;2022-12-18T12:38:50;0.70;99.90
20654;DHT22;21083;50.898;4.902;2022-12-18T12:41:20;0.80;99.90
20654;DHT22;21083;50.898;4.902;2022-12-18T12:44:09;0.90;99.90
20654;DHT22;21083;50.898;4.902;2022-12-18T12:46:41;0.80;99.90
20654;DHT22;21083;50.898;4.902;2022-12-18T12:49:13;0.90;99.90
20654;DHT22;21083;50.898;4.902;2022-12-18T12:51:43;0.90;99.90
20654;DHT22;21083;50.898;4.902;2022-12-18T12:54:17;0.90;99.90
20654;DHT22;21083;50.898;4.902;2022-12-18T12:56:54;1.10;99.90
20654;DHT22;21083;50.898;4.902;2022-12-18T12:59:28;1.10;99.90
20654;DHT22;21083;50.898;4.902;2022-12-18T13:01:59;1.10;99.90
20654;DHT22;21083;50.898;4.902;2022-12-18T13:04:35;1.10;99.90
20654;DHT22;21083;50.898;4.902;2022-12-18T13:07:06;1.20;99.90
20654;DHT22;21083;50.898;4.902;2022-12-18T13:12:56;1.20;99.90
20654;DHT22;21083;50.898;4.902;2022-12-18T13:15:25;1.20;99.90
20654;DHT22;21083;50.898;4.902;2022-12-18T13:18:14;1.20;99.90
20654;DHT22;21083;50.898;4.902;2022-12-18T13:20:45;1.30;99.90
20654;DHT22;21083;50.898;4.902;2022-12-18T13:23:33;1.30;99.90
20654;DHT22;21083;50.898;4.902;2022-12-18T13:26:32;1.40;99.90
20654;DHT22;21083;50.898;4.902;2022-12-18T13:29:00;1.40;99.90
20654;DHT22;21083;50.898;4.902;2022-12-18T13:34:33;1.50;99.90
20654;DHT22;21083;50.898;4.902;2022-12-18T13:43:20;1.60;99.90
20654;DHT22;21083;50.898;4.902;2022-12-18T13:45:59;1.60;99.90
20654;DHT22;21083;50.898;4.902;2022-12-18T13:48:29;1.70;99.90
20654;DHT22;21083;50.898;4.902;2022-12-18T13:51:00;1.60;99.90
20654;DHT22;21083;50.898;4.902;2022-12-18T13:53:33;1.60;99.90
20654;DHT22;21083;50.898;4.902;2022-12-18T13:56:01;1.70;99.90
20654;DHT22;21083;50.898;4.902;2022-12-18T13:58:30;1.60;99.90
20654;DHT22;21083;50.898;4.902;2022-12-18T14:00:56;1.60;99.90
20654;DHT22;21083;50.898;4.902;2022-12-18T14:03:27;1.60;99.90
20654;DHT22;21083;50.898;4.902;2022-12-18T14:05:58;1.70;99.90
20654;DHT22;21083;50.898;4.902;2022-12-18T14:08:30;1.60;99.90
20654;DHT22;21083;50.898;4.902;2022-12-18T14:10:59;1.60;99.90
20654;DHT22;21083;50.898;4.902;2022-12-18T14:13:32;1.60;99.90
20654;DHT22;21083;50.898;4.902;2022-12-18T14:16:00;1.60;99.90
20654;DHT22;21083;50.898;4.902;2022-12-18T14:18:36;1.60;99.90
20654;DHT22;21083;50.898;4.902;2022-12-18T14:21:04;1.70;99.90
20654;DHT22;21083;50.898;4.902;2022-12-18T14:23:34;1.60;99.90
20654;DHT22;21083;50.898;4.902;2022-12-18T14:26:03;1.50;99.90
20654;DHT22;21083;50.898;4.902;2022-12-18T14:28:46;1.60;99.90
20654;DHT22;21083;50.898;4.902;2022-12-18T14:31:18;1.80;99.90
20654;DHT22;21083;50.898;4.902;2022-12-18T14:33:45;1.70;99.90
20654;DHT22;21083;50.898;4.902;2022-12-18T14:36:15;1.70;99.90
20654;DHT22;21083;50.898;4.902;2022-12-18T14:38:43;1.70;99.90
20654;DHT22;21083;50.898;4.902;2022-12-18T14:41:11;1.60;99.90
20654;DHT22;21083;50.898;4.902;2022-12-18T14:43:40;1.60;99.90
20654;DHT22;21083;50.898;4.902;2022-12-18T14:46:32;1.60;99.90
20654;DHT22;21083;50.898;4.902;2022-12-18T14:49:02;1.60;99.90
20654;DHT22;21083;50.898;4.902;2022-12-18T14:51:30;1.60;99.90
20654;DHT22;21083;50.898;4.902;2022-12-18T14:53:59;1.60;99.90
20654;DHT22;21083;50.898;4.902;2022-12-18T14:56:28;1.50;99.90
20654;DHT22;21083;50.898;4.902;2022-12-18T14:58:57;1.60;99.90
20654;DHT22;21083;50.898;4.902;2022-12-18T15:01:27;1.50;99.90
20654;DHT22;21083;50.898;4.902;2022-12-18T15:03:57;1.40;99.90
20654;DHT22;21083;50.898;4.902;2022-12-18T15:06:30;1.40;99.90
20654;DHT22;21083;50.898;4.902;2022-12-18T15:08:58;1.40;99.90
20654;DHT22;21083;50.898;4.902;2022-12-18T15:11:45;1.30;99.90
20654;DHT22;21083;50.898;4.902;2022-12-18T15:14:32;1.30;99.90
20654;DHT22;21083;50.898;4.902;2022-12-18T15:17:00;1.30;99.90
20654;DHT22;21083;50.898;4.902;2022-12-18T15:19:34;1.30;99.90
20654;DHT22;21083;50.898;4.902;2022-12-18T15:22:02;1.30;99.90
20654;DHT22;21083;50.898;4.902;2022-12-18T15:24:31;1.30;99.90
20654;DHT22;21083;50.898;4.902;2022-12-18T15:26:58;1.40;99.90
20654;DHT22;21083;50.898;4.902;2022-12-18T15:29:25;1.30;99.90
20654;DHT22;21083;50.898;4.902;2022-12-18T15:32:02;1.30;99.90
20654;DHT22;21083;50.898;4.902;2022-12-18T15:34:31;1.20;99.90
20654;DHT22;21083;50.898;4.902;2022-12-18T15:36:59;1.30;99.90
20654;DHT22;21083;50.898;4.902;2022-12-18T15:39:26;1.30;99.90
20654;DHT22;21083;50.898;4.902;2022-12-18T15:41:53;1.40;99.90
20654;DHT22;21083;50.898;4.902;2022-12-18T15:44:38;1.40;99.90
20654;DHT22;21083;50.898;4.902;2022-12-18T15:47:10;1.40;99.90
20654;DHT22;21083;50.898;4.902;2022-12-18T15:49:39;1.40;99.90
20654;DHT22;21083;50.898;4.902;2022-12-18T15:52:08;1.40;99.90
20654;DHT22;21083;50.898;4.902;2022-12-18T15:54:38;1.40;99.90
20654;DHT22;21083;50.898;4.902;2022-12-18T15:57:22;1.50;99.90
20654;DHT22;21083;50.898;4.902;2022-12-18T15:59:50;1.40;99.90
20654;DHT22;21083;50.898;4.902;2022-12-18T16:02:19;1.60;99.90
20654;DHT22;21083;50.898;4.902;2022-12-18T16:04:49;1.80;99.90
20654;DHT22;21083;50.898;4.902;2022-12-18T16:07:16;1.80;99.90
20654;DHT22;21083;50.898;4.902;2022-12-18T16:09:43;1.70;99.90